Time;durP1;ratioP1;P1;durP2;ratioP2;P2;SDS_P1;SDS_P2;PMS_P1;PMS_P2;Temp;Humidity;BMP_temperature;BMP_pressure;BME280_temperature;BME280_humidity;BME280_pressure;Samples;Min_cycle;Max_cycle;Signal;HPM_P1;HPM_P2
2023/04/25 00:00:09;;;;;;;3.40;1.60;;;10.50;94.60;;;;;;4991458;28;20554;-84
2023/04/25 00:02:50;;;;;;;1.80;1.70;;;10.50;94.60;;;;;;4971994;28;20927;-82
2023/04/25 00:05:26;;;;;;;2.73;1.90;;;10.60;94.50;;;;;;4972306;28;20483;-83
2023/04/25 00:08:12;;;;;;;2.63;2.43;;;10.60;94.40;;;;;;4965097;28;20491;-82
2023/04/25 00:10:45;;;;;;;2.40;1.73;;;10.50;94.20;;;;;;4967634;28;20531;-82
2023/04/25 00:13:19;;;;;;;3.40;2.23;;;10.50;94.10;;;;;;4976231;28;20436;-83
2023/04/25 00:15:56;;;;;;;3.63;2.07;;;10.50;94.10;;;;;;4976592;28;20536;-81
2023/04/25 00:18:28;;;;;;;6.40;2.50;;;10.50;94.10;;;;;;4969731;28;20542;-82
2023/04/25 00:21:08;;;;;;;2.77;1.97;;;10.50;94.10;;;;;;4970384;28;20898;-81
2023/04/25 00:23:45;;;;;;;4.50;2.37;;;10.40;94.10;;;;;;4969902;28;20594;-81
2023/04/25 00:26:15;;;;;;;3.63;2.40;;;10.40;94.10;;;;;;4975865;28;20464;-81
2023/04/25 00:28:45;;;;;;;4.47;2.10;;;10.30;94.10;;;;;;4969447;28;20484;-82
2023/04/25 00:31:28;;;;;;;2.33;1.70;;;10.30;94.10;;;;;;4954613;28;20519;-81
2023/04/25 00:34:00;;;;;;;3.30;2.10;;;10.30;94.10;;;;;;4966305;28;20463;-83
2023/04/25 00:36:33;;;;;;;4.43;1.87;;;10.30;94.20;;;;;;4967513;28;20484;-83
2023/04/25 00:39:04;;;;;;;3.10;1.93;;;10.30;94.20;;;;;;4983476;28;20948;-83
2023/04/25 00:41:47;;;;;;;2.73;2.03;;;10.30;94.60;;;;;;4963453;28;20553;-82
2023/04/25 00:44:26;;;;;;;3.33;1.90;;;10.20;94.40;;;;;;4980172;28;20449;-83
2023/04/25 00:47:01;;;;;;;3.23;2.30;;;10.20;94.50;;;;;;4971532;28;20534;-83
2023/04/25 00:49:29;;;;;;;3.57;1.80;;;10.10;94.60;;;;;;4972737;28;20571;-84
2023/04/25 00:51:59;;;;;;;5.20;1.93;;;10.10;94.60;;;;;;4970120;28;20551;-84
2023/04/25 00:54:37;;;;;;;5.23;1.70;;;10.10;94.70;;;;;;4964752;28;20460;-83
2023/04/25 00:57:19;;;;;;;4.90;2.10;;;10.20;94.90;;;;;;4968492;28;20476;-85
2023/04/25 01:00:05;;;;;;;2.47;2.00;;;10.10;94.80;;;;;;4961680;28;20476;-82
2023/04/25 01:02:49;;;;;;;2.37;2.10;;;10.00;94.80;;;;;;4966331;28;20455;-82
2023/04/25 01:05:25;;;;;;;2.47;1.67;;;10.00;94.90;;;;;;4962552;28;20459;-83
2023/04/25 01:08:04;;;;;;;4.93;3.50;;;10.00;95.00;;;;;;4968769;28;20483;-82
2023/04/25 01:10:53;;;;;;;2.83;1.83;;;10.00;95.20;;;;;;4965694;28;20840;-82
2023/04/25 01:13:33;;;;;;;4.73;2.00;;;9.90;95.80;;;;;;4962146;28;20594;-83
2023/04/25 01:16:05;;;;;;;4.93;1.73;;;9.90;95.80;;;;;;4970532;28;20460;-83
2023/04/25 01:18:45;;;;;;;5.63;2.87;;;9.90;95.90;;;;;;4965874;28;20484;-84
2023/04/25 01:21:35;;;;;;;4.03;1.87;;;9.90;95.90;;;;;;4963607;28;20476;-83
2023/04/25 01:24:24;;;;;;;2.60;2.00;;;9.80;96.00;;;;;;4973681;28;20451;-83
2023/04/25 01:27:02;;;;;;;5.10;2.13;;;9.80;96.20;;;;;;4970600;28;20459;-83
2023/04/25 01:29:34;;;;;;;3.57;2.27;;;9.70;96.20;;;;;;4972269;28;20467;-83
2023/04/25 01:32:23;;;;;;;3.00;2.30;;;9.80;96.40;;;;;;4950086;28;21019;-84
2023/04/25 01:35:09;;;;;;;3.77;2.07;;;9.70;96.40;;;;;;4973829;28;20455;-82
2023/04/25 01:37:46;;;;;;;2.30;2.10;;;9.70;96.60;;;;;;4983037;28;20609;-83
2023/04/25 01:40:27;;;;;;;3.67;2.00;;;9.70;96.60;;;;;;4983021;28;20454;-81
2023/04/25 01:42:57;;;;;;;3.00;2.30;;;9.70;96.60;;;;;;4984056;28;20516;-82
2023/04/25 01:45:48;;;;;;;4.50;2.57;;;9.70;96.80;;;;;;4984348;28;20505;-80
2023/04/25 01:48:27;;;;;;;2.30;2.10;;;9.60;96.80;;;;;;4976383;28;20492;-83
2023/04/25 01:51:11;;;;;;;3.07;2.10;;;9.60;96.90;;;;;;4973811;28;20972;-82
2023/04/25 01:53:46;;;;;;;2.40;1.97;;;9.50;96.90;;;;;;4964227;28;20457;-82
2023/04/25 01:56:20;;;;;;;5.23;2.50;;;9.50;97.10;;;;;;4976140;28;20447;-82
2023/04/25 01:58:49;;;;;;;1.70;1.60;;;9.50;97.20;;;;;;4971421;28;20460;-82
2023/04/25 02:01:16;;;;;;;3.33;2.07;;;9.50;97.20;;;;;;4974519;28;20458;-83
2023/04/25 02:03:54;;;;;;;2.80;2.10;;;9.50;97.20;;;;;;4974641;28;20955;-82
2023/04/25 02:09:28;;;;;;;5.53;2.70;;;9.40;97.30;;;;;;4980224;28;20447;-81
2023/04/25 02:12:07;;;;;;;2.03;1.87;;;9.40;97.30;;;;;;4975294;28;20451;-81
2023/04/25 02:14:34;;;;;;;4.20;2.50;;;9.40;97.30;;;;;;4975455;28;20463;-84
2023/04/25 02:17:13;;;;;;;5.07;2.73;;;9.40;97.30;;;;;;4970684;28;20579;-83
2023/04/25 02:19:46;;;;;;;2.60;1.70;;;9.40;97.70;;;;;;4976288;28;20451;-82
2023/04/25 02:22:21;;;;;;;4.93;2.13;;;9.30;97.40;;;;;;4978682;28;20485;-83
2023/04/25 02:24:56;;;;;;;2.40;2.20;;;9.30;97.50;;;;;;4981701;28;20454;-81
2023/04/25 02:27:32;;;;;;;4.03;2.40;;;9.40;97.60;;;;;;4977445;28;20487;-80
2023/04/25 02:30:06;;;;;;;2.20;1.80;;;9.30;97.50;;;;;;4980268;28;20804;-83
2023/04/25 02:32:47;;;;;;;4.27;2.00;;;9.30;97.50;;;;;;4973068;28;20527;-82
2023/04/25 02:35:26;;;;;;;2.13;1.97;;;9.40;97.50;;;;;;4972006;28;20447;-83
2023/04/25 02:37:57;;;;;;;3.33;1.40;;;9.40;97.50;;;;;;4963915;28;20487;-83
2023/04/25 02:40:54;;;;;;;1.90;1.67;;;9.40;97.40;;;;;;4973077;28;20463;-83
2023/04/25 02:43:27;;;;;;;3.40;1.80;;;9.40;97.30;;;;;;4971387;28;20455;-83
2023/04/25 02:46:04;;;;;;;1.63;1.53;;;9.40;97.20;;;;;;4982887;28;20444;-83
2023/04/25 02:48:33;;;;;;;2.17;1.67;;;9.40;97.10;;;;;;4971886;28;21042;-84
2023/04/25 02:51:30;;;;;;;2.00;1.43;;;9.40;97.10;;;;;;4976948;28;20483;-83
2023/04/25 02:54:12;;;;;;;2.70;1.77;;;9.40;97.10;;;;;;4984820;28;20464;-84
2023/04/25 02:57:08;;;;;;;3.40;2.13;;;9.40;97.10;;;;;;4972672;28;20598;-83
2023/04/25 02:59:48;;;;;;;3.17;1.73;;;9.50;97.10;;;;;;4968099;28;20536;-83
2023/04/25 03:02:32;;;;;;;1.60;1.40;;;9.40;97.00;;;;;;4972894;28;20498;-82
2023/04/25 03:05:13;;;;;;;4.23;2.03;;;9.40;97.10;;;;;;4967500;28;20466;-83
2023/04/25 03:07:52;;;;;;;2.00;1.80;;;9.50;97.10;;;;;;4970383;28;20490;-82
2023/04/25 03:10:23;;;;;;;4.50;1.43;;;9.60;97.10;;;;;;4968237;28;20511;-82
2023/04/25 03:13:14;;;;;;;1.80;1.40;;;9.50;96.90;;;;;;4970126;28;20559;-82
2023/04/25 03:15:58;;;;;;;3.83;1.80;;;9.50;97.10;;;;;;4971099;28;20469;-83
2023/04/25 03:18:58;;;;;;;3.30;1.73;;;9.50;97.20;;;;;;4973022;28;20514;-82
2023/04/25 03:21:34;;;;;;;3.07;1.53;;;9.50;97.20;;;;;;4971868;28;20457;-82
2023/04/25 03:24:13;;;;;;;5.80;1.97;;;9.50;97.30;;;;;;4971397;28;20599;-82
2023/04/25 03:26:43;;;;;;;1.77;1.50;;;9.40;97.50;;;;;;4959936;28;20495;-80
2023/04/25 03:29:26;;;;;;;3.57;1.50;;;9.40;97.60;;;;;;4970971;28;20519;-82
2023/04/25 03:32:12;;;;;;;4.17;1.70;;;9.40;97.80;;;;;;4973747;28;20578;-82
2023/04/25 03:34:46;;;;;;;3.80;3.53;;;9.40;97.80;;;;;;4969266;28;20460;-80
2023/04/25 03:37:20;;;;;;;2.13;1.70;;;9.40;97.90;;;;;;4969440;28;20476;-80
2023/04/25 03:40:06;;;;;;;5.80;2.27;;;9.40;98.00;;;;;;4984519;28;20455;-82
2023/04/25 03:42:44;;;;;;;2.00;1.80;;;9.40;98.10;;;;;;4975945;28;20472;-81
2023/04/25 03:45:31;;;;;;;2.90;1.50;;;9.60;98.00;;;;;;4989171;28;20501;-80
2023/04/25 03:48:05;;;;;;;2.40;1.70;;;9.60;97.90;;;;;;4971996;28;20513;-81
2023/04/25 03:50:47;;;;;;;1.83;1.73;;;9.50;97.80;;;;;;4969136;28;20551;-80
2023/04/25 03:53:41;;;;;;;1.77;1.40;;;9.60;98.00;;;;;;4956285;28;20443;-80
2023/04/25 03:56:32;;;;;;;2.10;1.80;;;9.60;97.80;;;;;;4968554;28;20881;-82
2023/04/25 03:59:23;;;;;;;2.80;1.70;;;9.70;97.80;;;;;;4963651;28;20931;-83
2023/04/25 04:02:11;;;;;;;2.00;1.50;;;9.60;97.70;;;;;;4970384;28;20542;-83
2023/04/25 04:04:51;;;;;;;2.20;1.80;;;9.50;97.80;;;;;;4969895;28;20576;-82
2023/04/25 04:07:21;;;;;;;1.93;1.70;;;9.40;97.90;;;;;;4990415;28;20968;-84
2023/04/25 04:10:13;;;;;;;2.60;2.10;;;9.40;98.30;;;;;;4974432;28;20504;-83
2023/04/25 04:13:53;;;;;;;2.50;1.87;;;9.40;98.40;;;;;;4974591;28;20464;-80
2023/04/25 04:16:38;;;;;;;2.10;1.87;;;9.40;98.50;;;;;;5221456;23;20503;-80
2023/04/25 04:19:15;;;;;;;1.80;1.40;;;9.40;98.60;;;;;;4981989;28;20487;-80
2023/04/25 04:21:52;;;;;;;3.50;1.87;;;9.60;98.60;;;;;;5022971;23;20505;-82
2023/04/25 04:24:37;;;;;;;2.53;1.57;;;9.60;98.40;;;;;;4973688;28;20457;-82
2023/04/25 04:27:23;;;;;;;2.13;1.80;;;9.60;98.40;;;;;;4966323;29;20430;-79
2023/04/25 04:30:10;;;;;;;4.60;2.33;;;9.60;98.20;;;;;;5072822;23;20483;-83
2023/04/25 04:38:03;;;;;;;2.60;2.00;;;9.40;98.60;;;;;;5329936;23;20576;-83
2023/04/25 04:41:01;;;;;;;1.77;1.67;;;9.40;98.70;;;;;;4935874;29;20549;-81
2023/04/25 04:43:32;;;;;;;3.53;2.07;;;9.40;98.80;;;;;;4945759;28;20449;-83
2023/04/25 04:46:31;;;;;;;2.30;2.10;;;9.40;98.90;;;;;;4955662;28;20518;-82
2023/04/25 04:49:24;;;;;;;1.90;1.73;;;9.40;98.90;;;;;;4956892;28;20513;-82
2023/04/25 04:52:24;;;;;;;3.60;1.77;;;9.40;99.00;;;;;;4969359;28;20441;-81
2023/04/25 04:55:08;;;;;;;4.37;2.10;;;9.40;99.00;;;;;;4951525;29;20469;-83
2023/04/25 04:57:36;;;;;;;2.87;1.47;;;9.50;98.90;;;;;;4951586;28;20477;-81
2023/04/25 05:00:27;;;;;;;2.40;2.20;;;9.50;98.90;;;;;;4957289;28;20456;-82
2023/04/25 05:03:13;;;;;;;;;;;;;;;;;;;;;
2023/04/25 05:05:55;;;;;;;5.90;2.30;;;9.50;98.90;;;;;;5514771;23;20527;-82
2023/04/25 05:08:27;;;;;;;2.97;2.30;;;9.50;99.00;;;;;;4999831;28;20549;-85
2023/04/25 05:11:01;;;;;;;4.20;2.20;;;9.40;99.00;;;;;;4975745;28;20471;-82
2023/04/25 05:13:46;;;;;;;3.53;2.13;;;9.40;99.10;;;;;;5088918;23;20995;-83
2023/04/25 05:16:47;;;;;;;3.93;2.00;;;9.40;99.30;;;;;;4987621;28;21383;-83
2023/04/25 05:20:19;;;;;;;3.77;2.27;;;9.40;99.30;;;;;;4937139;28;20434;-83
2023/04/25 05:22:45;;;;;;;3.07;2.03;;;9.50;99.30;;;;;;4975248;28;20506;-83
2023/04/25 05:25:15;;;;;;;2.90;1.83;;;9.50;99.20;;;;;;4983704;28;20445;-83
2023/04/25 05:28:02;;;;;;;3.00;1.87;;;9.40;99.10;;;;;;4969878;28;21281;-83
2023/04/25 05:30:46;;;;;;;3.97;2.17;;;9.50;99.20;;;;;;4963603;28;20437;-83
2023/04/25 05:33:19;;;;;;;3.30;1.90;;;9.50;99.30;;;;;;4986485;28;20535;-81
2023/04/25 05:36:12;;;;;;;3.43;2.13;;;9.60;99.30;;;;;;4959251;28;20455;-83
2023/04/25 05:41:53;;;;;;;2.30;1.80;;;9.70;98.90;;;;;;4972505;28;20547;-86
2023/04/25 05:44:32;;;;;;;3.30;2.87;;;9.80;98.70;;;;;;4959757;28;20453;-82
2023/04/25 05:47:23;;;;;;;2.77;1.97;;;9.80;98.50;;;;;;4955311;28;20472;-83
2023/04/25 05:50:07;;;;;;;3.23;2.07;;;9.80;98.20;;;;;;4958064;29;21211;-83
2023/04/25 05:53:03;;;;;;;3.47;2.10;;;9.80;98.10;;;;;;4952881;29;20492;-83
2023/04/25 05:55:55;;;;;;;3.93;1.87;;;9.80;98.10;;;;;;4969391;28;20838;-82
2023/04/25 05:58:57;;;;;;;8.63;2.17;;;9.90;98.20;;;;;;4962338;28;20767;-82
2023/04/25 06:01:35;;;;;;;3.97;2.03;;;10.00;97.60;;;;;;4949462;28;20782;-82
2023/04/25 06:04:16;;;;;;;3.43;2.17;;;10.20;97.40;;;;;;4964226;28;20469;-82
2023/04/25 06:07:12;;;;;;;5.03;2.00;;;10.60;96.80;;;;;;4962231;28;20483;-82
2023/04/25 06:10:01;;;;;;;4.70;2.30;;;10.90;95.70;;;;;;4952119;28;20521;-83
2023/04/25 06:13:13;;;;;;;2.93;1.40;;;11.40;95.50;;;;;;4944465;28;20433;-82
2023/04/25 06:16:05;;;;;;;2.53;2.00;;;13.30;93.50;;;;;;4970900;28;20469;-82
2023/04/25 06:22:08;;;;;;;4.20;2.10;;;16.00;80.80;;;;;;4947533;28;20523;-82
2023/04/25 06:25:15;;;;;;;5.30;2.10;;;17.90;74.60;;;;;;4953020;28;20448;-83
2023/04/25 06:27:58;;;;;;;3.17;2.23;;;18.80;68.30;;;;;;4946761;28;20480;-82
2023/04/25 06:30:54;;;;;;;4.90;2.13;;;17.70;64.70;;;;;;4955419;29;20438;-80
2023/04/25 06:36:50;;;;;;;2.60;1.70;;;13.40;75.50;;;;;;4946718;29;20460;-81
2023/04/25 06:39:46;;;;;;;4.37;2.30;;;12.40;81.90;;;;;;4946116;28;20484;-82
2023/04/25 06:42:39;;;;;;;6.73;2.83;;;11.90;86.10;;;;;;4967193;28;20991;-82
2023/04/25 06:45:09;;;;;;;4.33;2.53;;;11.80;88.30;;;;;;4955629;29;20456;-83
2023/04/25 06:48:20;;;;;;;3.10;2.73;;;11.60;89.00;;;;;;4934186;28;20857;-81
2023/04/25 06:51:50;;;;;;;3.80;2.90;;;11.70;89.50;;;;;;4957417;29;20567;-81
2023/04/25 06:54:31;;;;;;;2.33;2.03;;;11.50;90.20;;;;;;4949614;29;20488;-82
2023/04/25 06:57:12;;;;;;;3.07;1.87;;;11.90;90.70;;;;;;4955358;28;20457;-81
2023/04/25 07:00:12;;;;;;;2.20;2.00;;;12.40;89.50;;;;;;4956190;29;20453;-82
2023/04/25 07:03:39;;;;;;;5.33;1.90;;;13.10;86.70;;;;;;4943469;29;20786;-81
2023/04/25 07:06:31;;;;;;;3.97;2.50;;;14.40;82.30;;;;;;4863162;29;20528;-84
2023/04/25 07:09:12;;;;;;;2.90;1.80;;;15.30;79.30;;;;;;4869037;29;20485;-83
2023/04/25 07:12:47;;;;;;;6.27;2.10;;;15.40;74.00;;;;;;4861707;29;20925;-81
2023/04/25 07:15:32;;;;;;;4.73;2.30;;;14.70;73.30;;;;;;4878181;29;20471;-83
2023/04/25 07:18:43;;;;;;;3.37;1.90;;;13.40;77.40;;;;;;4865241;29;20491;-81
2023/04/25 07:21:20;;;;;;;2.57;2.03;;;12.60;80.90;;;;;;4878934;29;20710;-82
2023/04/25 07:24:14;;;;;;;2.70;2.50;;;12.50;83.30;;;;;;4858960;29;20468;-83
2023/04/25 07:27:03;;;;;;;;;;;;;;;;;;;;;
2023/04/25 07:30:20;;;;;;;3.33;1.97;;;13.40;83.20;;;;;;4875369;29;20460;-82
2023/04/25 07:33:00;;;;;;;3.50;1.87;;;15.10;78.30;;;;;;4876005;29;20469;-83
2023/04/25 07:35:53;;;;;;;3.40;2.63;;;15.00;73.10;;;;;;4865445;29;20568;-82
2023/04/25 07:38:36;;;;;;;3.30;2.23;;;14.50;73.00;;;;;;4879419;29;20591;-83
2023/04/25 07:41:20;;;;;;;4.67;2.20;;;13.80;74.70;;;;;;4881477;29;20452;-82
2023/04/25 07:44:06;;;;;;;4.10;2.20;;;13.90;76.00;;;;;;4928518;29;20515;-82
2023/04/25 07:47:01;;;;;;;3.37;2.10;;;15.50;74.10;;;;;;4952685;29;21229;-82
2023/04/25 07:49:56;;;;;;;4.73;2.43;;;16.20;67.80;;;;;;4950846;29;20892;-82
2023/04/25 07:52:35;;;;;;;3.10;2.50;;;15.50;68.90;;;;;;4959044;28;20449;-82
2023/04/25 07:55:39;;;;;;;2.50;1.80;;;15.90;68.80;;;;;;4942158;28;21040;-82
2023/04/25 07:58:23;;;;;;;2.30;1.93;;;16.70;67.00;;;;;;4958889;29;20500;-82
2023/04/25 08:00:59;;;;;;;3.17;2.30;;;16.20;64.60;;;;;;4974806;28;20456;-81
2023/04/25 08:03:52;;;;;;;2.63;2.33;;;16.00;66.10;;;;;;4978053;28;20437;-81
2023/04/25 08:06:34;;;;;;;3.60;2.80;;;16.50;65.00;;;;;;4973916;28;20447;-81
2023/04/25 08:09:36;;;;;;;4.00;2.47;;;16.60;63.40;;;;;;4975732;28;20493;-81
2023/04/25 08:12:33;;;;;;;;;;;;;;;;;;;;;
2023/04/25 08:15:06;;;;;;;2.10;1.90;;;15.70;64.20;;;;;;4952438;29;21029;-81
2023/04/25 08:17:50;;;;;;;3.53;2.13;;;15.80;66.80;;;;;;4947709;28;20468;-82
2023/04/25 08:20:25;;;;;;;3.77;1.90;;;16.00;64.90;;;;;;4965188;28;20456;-82
2023/04/25 08:23:11;;;;;;;4.07;2.00;;;15.90;64.40;;;;;;4950637;29;20468;-82
2023/04/25 08:26:04;;;;;;;6.50;2.57;;;15.70;64.10;;;;;;4957624;29;20445;-81
2023/04/25 08:28:49;;;;;;;3.57;2.10;;;15.00;62.90;;;;;;4954339;28;20492;-83
2023/04/25 08:31:30;;;;;;;1.73;1.63;;;14.80;64.80;;;;;;4954086;29;20819;-80
2023/04/25 08:34:41;;;;;;;2.73;1.67;;;14.90;64.80;;;;;;4941437;29;20428;-81
2023/04/25 08:37:37;;;;;;;4.77;1.87;;;15.10;63.50;;;;;;4946526;28;20483;-82
2023/04/25 08:40:30;;;;;;;5.90;1.90;;;15.60;63.80;;;;;;4950208;29;20968;-81
2023/04/25 08:43:47;;;;;;;2.60;1.53;;;16.70;60.00;;;;;;4949087;29;20453;-80
2023/04/25 08:46:53;;;;;;;2.67;1.80;;;16.50;58.00;;;;;;4951964;29;20464;-83
2023/04/25 08:49:50;;;;;;;2.00;1.80;;;15.80;59.90;;;;;;4937332;29;20490;-83
2023/04/25 08:53:04;;;;;;;1.53;1.27;;;15.50;59.30;;;;;;4939956;28;20520;-82
2023/04/25 08:56:05;;;;;;;;;;;;;;;;;;;;;
2023/04/25 08:58:50;;;;;;;1.47;1.27;;;14.40;62.30;;;;;;4950010;28;20485;-81
2023/04/25 09:01:36;;;;;;;4.40;1.40;;;14.10;63.60;;;;;;4964599;28;20455;-83
2023/04/25 09:04:10;;;;;;;1.60;1.50;;;14.00;63.30;;;;;;4963971;28;20976;-82
2023/04/25 09:07:18;;;;;;;2.23;1.70;;;13.70;63.30;;;;;;4949214;29;20544;-82
2023/04/25 09:10:31;;;;;;;2.37;1.40;;;13.80;63.90;;;;;;4952777;29;20457;-82
2023/04/25 09:13:31;;;;;;;1.87;1.30;;;13.30;65.10;;;;;;4957350;29;20560;-83
2023/04/25 09:16:09;;;;;;;3.30;1.57;;;13.40;64.80;;;;;;4951476;29;20460;-82
2023/04/25 09:19:16;;;;;;;2.40;1.40;;;13.10;64.50;;;;;;4946924;29;20488;-83
2023/04/25 09:22:08;;;;;;;2.30;1.73;;;12.70;65.80;;;;;;4967390;29;20457;-82
2023/04/25 09:24:49;;;;;;;2.80;1.70;;;12.50;66.90;;;;;;4954885;29;20460;-82
2023/04/25 09:27:32;;;;;;;1.43;1.27;;;12.30;67.80;;;;;;4954624;28;20467;-84
2023/04/25 09:30:18;;;;;;;2.03;1.10;;;12.20;67.70;;;;;;4952374;29;20454;-83
2023/04/25 09:32:58;;;;;;;1.37;0.97;;;12.30;67.90;;;;;;4952633;29;20464;-81
2023/04/25 09:35:53;;;;;;;1.60;1.03;;;12.40;68.30;;;;;;4956533;29;20457;-83
2023/04/25 09:38:35;;;;;;;3.60;1.90;;;12.40;68.10;;;;;;4953465;29;20488;-82
2023/04/25 09:41:12;;;;;;;5.50;3.73;;;12.50;67.70;;;;;;4952989;29;20452;-82
2023/04/25 09:44:06;;;;;;;3.93;2.17;;;12.60;67.90;;;;;;4954258;29;20904;-82
2023/04/25 09:46:54;;;;;;;3.70;3.17;;;12.70;65.70;;;;;;4962801;29;20451;-81
2023/04/25 09:49:50;;;;;;;1.77;1.10;;;12.70;63.50;;;;;;4953326;29;20461;-81
2023/04/25 09:52:21;;;;;;;2.40;1.30;;;12.50;62.60;;;;;;4949644;29;20465;-79
2023/04/25 09:54:56;;;;;;;3.33;1.70;;;12.40;62.80;;;;;;4951021;28;20468;-81
2023/04/25 09:57:41;;;;;;;2.20;1.00;;;12.30;63.80;;;;;;4952643;28;20635;-83
2023/04/25 10:00:12;;;;;;;1.20;1.10;;;12.40;63.50;;;;;;4953035;29;20563;-82
2023/04/25 10:02:48;;;;;;;3.43;1.40;;;12.50;64.70;;;;;;4948196;29;20479;-82
2023/04/25 10:05:46;;;;;;;3.97;2.90;;;12.60;65.20;;;;;;4960372;28;20554;-80
2023/04/25 10:08:55;;;;;;;1.43;1.10;;;12.70;65.20;;;;;;4963185;28;20552;-80
2023/04/25 10:11:52;;;;;;;;;;;;;;;;;;;;;
2023/04/25 10:14:29;;;;;;;2.03;1.80;;;12.40;64.50;;;;;;4965291;28;20464;-82
2023/04/25 10:17:01;;;;;;;2.17;1.23;;;12.20;65.00;;;;;;4974433;29;20523;-82
2023/04/25 10:19:48;;;;;;;2.00;1.70;;;12.10;66.50;;;;;;4973554;29;20913;-82
2023/04/25 10:22:56;;;;;;;0.97;0.97;;;12.30;68.00;;;;;;4972775;28;20511;-82
2023/04/25 10:25:25;;;;;;;1.50;1.40;;;12.30;66.30;;;;;;4969015;29;20456;-81
2023/04/25 10:27:59;;;;;;;3.07;1.10;;;12.50;65.70;;;;;;4972272;28;20472;-82
2023/04/25 10:31:05;;;;;;;3.67;1.60;;;12.40;65.30;;;;;;4970624;29;20797;-82
2023/04/25 10:33:40;;;;;;;1.23;1.00;;;12.30;65.60;;;;;;4960102;29;20463;-82
2023/04/25 10:36:37;;;;;;;2.20;2.10;;;12.40;65.80;;;;;;4967209;28;20456;-82
2023/04/25 10:39:18;;;;;;;1.47;1.37;;;12.20;65.50;;;;;;4962713;28;20884;-81
2023/04/25 10:42:04;;;;;;;1.40;1.13;;;12.30;65.90;;;;;;4972858;28;20464;-82
2023/04/25 10:45:15;;;;;;;1.00;0.90;;;12.40;66.00;;;;;;4963360;28;20480;-83
2023/04/25 10:48:00;;;;;;;2.50;1.30;;;13.00;66.80;;;;;;4951408;28;20476;-82
2023/04/25 10:50:50;;;;;;;1.10;1.00;;;14.00;59.80;;;;;;4951507;29;20468;-83
2023/04/25 10:53:33;;;;;;;1.97;1.20;;;14.20;58.30;;;;;;4954579;29;20496;-82
2023/04/25 10:56:08;;;;;;;2.20;1.27;;;13.80;57.30;;;;;;4950431;29;20469;-83
2023/04/25 10:59:07;;;;;;;1.73;1.40;;;13.50;58.00;;;;;;4954578;29;20496;-82
2023/04/25 11:01:59;;;;;;;1.77;0.90;;;13.20;59.30;;;;;;4951229;29;20456;-82
2023/04/25 11:04:37;;;;;;;2.40;1.50;;;13.00;59.50;;;;;;4957654;28;20988;-82
2023/04/25 11:07:42;;;;;;;3.73;1.47;;;12.90;59.70;;;;;;4956378;28;20482;-83
2023/04/25 11:10:29;;;;;;;4.60;1.40;;;12.80;60.60;;;;;;4953742;29;20476;-81
2023/04/25 11:13:08;;;;;;;2.00;1.20;;;12.60;61.60;;;;;;4949915;29;20465;-83
2023/04/25 11:15:59;;;;;;;1.50;0.90;;;12.50;62.60;;;;;;4957673;29;20469;-83
2023/04/25 11:18:38;;;;;;;0.80;0.80;;;12.40;63.30;;;;;;4955612;29;20520;-84
2023/04/25 11:21:20;;;;;;;1.40;1.00;;;12.40;63.90;;;;;;4957792;29;20441;-82
2023/04/25 11:24:18;;;;;;;2.70;0.97;;;12.40;63.60;;;;;;4958479;29;20937;-82
2023/04/25 11:27:02;;;;;;;0.83;0.83;;;12.40;63.50;;;;;;4947005;29;20532;-80
2023/04/25 11:29:52;;;;;;;1.23;0.90;;;12.50;61.10;;;;;;4966483;29;20540;-80
2023/04/25 11:32:56;;;;;;;3.13;1.27;;;12.40;59.70;;;;;;4951697;29;20453;-82
2023/04/25 11:35:35;;;;;;;1.10;1.10;;;12.50;59.60;;;;;;4968879;29;20453;-84
2023/04/25 11:38:23;;;;;;;1.17;0.93;;;12.70;59.80;;;;;;4959328;28;20539;-82
2023/04/25 11:41:00;;;;;;;1.47;0.90;;;12.80;59.80;;;;;;4955248;29;20837;-83
2023/04/25 11:43:38;;;;;;;1.03;1.00;;;12.90;59.90;;;;;;4960068;29;20455;-83
2023/04/25 11:46:19;;;;;;;3.17;1.70;;;13.30;60.00;;;;;;4960156;29;20476;-83
2023/04/25 11:49:01;;;;;;;1.33;1.03;;;13.60;59.40;;;;;;4945658;29;20475;-83
2023/04/25 11:51:45;;;;;;;3.93;1.60;;;13.90;58.90;;;;;;4956074;28;20858;-83
2023/04/25 11:54:23;;;;;;;2.60;1.20;;;14.30;58.60;;;;;;4957844;29;20512;-79
2023/04/25 11:57:04;;;;;;;1.37;1.23;;;14.50;57.60;;;;;;4957282;29;20456;-83
2023/04/25 11:59:35;;;;;;;1.33;1.07;;;14.70;55.40;;;;;;4961363;29;20500;-83
2023/04/25 12:02:32;;;;;;;0.80;0.80;;;14.50;53.90;;;;;;4959477;29;20532;-82
2023/04/25 12:05:30;;;;;;;1.63;1.07;;;14.60;54.50;;;;;;4952657;28;20445;-82
2023/04/25 12:08:18;;;;;;;2.20;1.03;;;14.60;54.00;;;;;;4954193;28;20859;-83
2023/04/25 12:10:58;;;;;;;1.70;0.80;;;14.90;53.00;;;;;;4956389;29;20550;-83
2023/04/25 12:13:38;;;;;;;1.47;0.90;;;15.30;51.90;;;;;;4955940;29;20979;-81
2023/04/25 12:16:30;;;;;;;1.27;0.83;;;15.70;51.60;;;;;;4956225;29;21000;-82
2023/04/25 12:19:24;;;;;;;1.57;0.60;;;16.10;49.30;;;;;;4958506;28;20499;-83
2023/04/25 12:22:21;;;;;;;1.33;0.90;;;16.10;47.90;;;;;;4953917;29;20492;-82
2023/04/25 12:25:33;;;;;;;0.73;0.70;;;16.00;47.10;;;;;;4960825;29;20453;-80
2023/04/25 12:28:44;;;;;;;1.13;0.70;;;15.90;46.60;;;;;;4973558;28;20492;-83
2023/04/25 12:31:21;;;;;;;1.50;1.00;;;16.00;45.70;;;;;;4950333;29;20520;-81
2023/04/25 12:34:35;;;;;;;1.10;1.10;;;16.60;45.70;;;;;;4957428;28;20452;-83
2023/04/25 12:37:14;;;;;;;1.90;1.20;;;16.40;45.00;;;;;;4955830;28;20837;-83
2023/04/25 12:40:09;;;;;;;1.00;0.90;;;16.20;46.10;;;;;;4955594;29;20470;-83
2023/04/25 12:42:48;;;;;;;1.00;0.90;;;16.00;46.40;;;;;;4956757;29;20484;-82
2023/04/25 12:45:27;;;;;;;1.10;1.03;;;16.20;46.20;;;;;;4885399;29;20456;-83
2023/04/25 12:48:00;;;;;;;1.10;1.00;;;15.70;46.80;;;;;;4897241;29;20483;-83
2023/04/25 12:50:43;;;;;;;1.57;1.00;;;15.40;47.50;;;;;;4905354;29;20467;-82
2023/04/25 12:53:40;;;;;;;2.97;1.00;;;15.20;48.00;;;;;;4903045;29;20455;-82
2023/04/25 12:56:11;;;;;;;0.93;0.93;;;15.00;48.00;;;;;;4901930;29;20523;-82
2023/04/25 12:58:44;;;;;;;1.83;0.90;;;14.80;48.60;;;;;;4889230;29;20927;-82
2023/04/25 13:01:21;;;;;;;1.50;1.03;;;14.80;49.30;;;;;;4901122;29;20522;-82
2023/04/25 13:03:53;;;;;;;2.30;1.40;;;14.80;49.80;;;;;;4929743;29;20457;-83
2023/04/25 13:06:41;;;;;;;1.10;1.00;;;14.80;50.60;;;;;;4956595;28;20466;-83
2023/04/25 13:09:12;;;;;;;2.23;0.90;;;14.60;51.10;;;;;;4953105;29;20508;-82
2023/04/25 13:12:15;;;;;;;2.30;1.00;;;14.50;50.70;;;;;;4958343;29;20453;-82
2023/04/25 13:14:58;;;;;;;0.90;0.73;;;14.70;50.80;;;;;;4940843;29;20457;-83
2023/04/25 13:17:30;;;;;;;1.03;0.93;;;14.40;50.80;;;;;;4954868;28;20512;-82
2023/04/25 13:20:28;;;;;;;;;;;;;;;;;;;;;
2023/04/25 13:23:20;;;;;;;1.13;1.03;;;14.30;50.50;;;;;;4953621;29;20469;-82
2023/04/25 13:25:50;;;;;;;0.90;0.90;;;14.50;49.80;;;;;;4963343;29;20444;-81
2023/04/25 13:28:41;;;;;;;1.10;1.00;;;14.40;48.60;;;;;;4957473;28;20495;-82
2023/04/25 13:31:18;;;;;;;1.97;1.13;;;14.50;48.80;;;;;;4954935;29;20547;-84
2023/04/25 13:34:17;;;;;;;;;;;;;;;;;;;;;
2023/04/25 13:37:13;;;;;;;1.00;0.70;;;14.90;46.40;;;;;;4916058;29;20550;-84
2023/04/25 13:40:32;;;;;;;2.07;1.20;;;15.00;46.20;;;;;;4911539;29;20550;-82
2023/04/25 13:43:02;;;;;;;0.60;0.60;;;15.10;45.80;;;;;;4899172;29;20482;-83
2023/04/25 13:45:40;;;;;;;1.40;0.77;;;15.30;45.70;;;;;;4901798;29;20443;-84
2023/04/25 13:48:15;;;;;;;2.00;0.90;;;15.50;45.60;;;;;;4916372;29;20577;-80
2023/04/25 13:50:58;;;;;;;1.67;1.10;;;15.70;45.30;;;;;;4922722;29;20526;-82
2023/04/25 13:54:03;;;;;;;1.20;0.90;;;15.90;44.70;;;;;;4909136;29;20528;-82
2023/04/25 13:56:48;;;;;;;1.27;0.90;;;15.90;44.30;;;;;;4905969;29;20566;-82
2023/04/25 13:59:37;;;;;;;0.90;0.80;;;16.10;44.20;;;;;;4901154;29;20858;-82
2023/04/25 14:02:29;;;;;;;1.17;0.90;;;15.90;44.30;;;;;;4901964;29;20487;-82
2023/04/25 14:05:37;;;;;;;;;;;;;;;;;;;;;
2023/04/25 14:11:08;;;;;;;3.00;0.90;;;15.80;43.80;;;;;;4939119;29;20480;-81
2023/04/25 14:13:50;;;;;;;;;;;;;;;;;;;;;
2023/04/25 14:16:53;;;;;;;1.03;0.80;;;15.70;43.70;;;;;;4963507;29;20472;-82
2023/04/25 14:19:29;;;;;;;0.80;0.70;;;15.70;44.00;;;;;;4957460;29;20485;-82
2023/04/25 14:22:11;;;;;;;1.77;0.73;;;15.70;44.50;;;;;;4951120;29;20836;-81
2023/04/25 14:24:50;;;;;;;0.80;0.70;;;15.70;44.40;;;;;;4961073;29;20541;-81
2023/04/25 14:27:28;;;;;;;1.10;0.93;;;15.70;45.00;;;;;;4960087;29;20456;-81
2023/04/25 14:30:22;;;;;;;1.83;1.10;;;15.80;46.40;;;;;;4951617;29;20841;-81
2023/04/25 14:33:02;;;;;;;1.27;1.17;;;15.70;48.10;;;;;;4956002;29;20456;-83
2023/04/25 14:35:43;;;;;;;1.27;1.10;;;15.90;49.40;;;;;;4958562;29;20544;-82
2023/04/25 14:38:26;;;;;;;1.60;0.70;;;16.00;49.10;;;;;;4952339;28;20511;-81
2023/04/25 14:41:16;;;;;;;0.93;0.90;;;15.90;48.60;;;;;;4960909;29;20524;-82
2023/04/25 14:43:59;;;;;;;0.63;0.63;;;16.00;48.10;;;;;;4955141;29;20480;-83
2023/04/25 14:46:58;;;;;;;;;;;;;;;;;;;;;
2023/04/25 14:49:43;;;;;;;0.70;0.60;;;16.00;43.50;;;;;;4954508;29;20481;-82
2023/04/25 14:52:27;;;;;;;3.13;0.73;;;16.10;41.90;;;;;;4954847;29;20457;-82
2023/04/25 14:55:06;;;;;;;0.60;0.60;;;16.10;40.30;;;;;;4951756;28;20463;-81
2023/04/25 14:57:49;;;;;;;1.50;0.87;;;15.90;41.00;;;;;;4953267;28;21025;-82